sensor_id;sensor_type;location;lat;lon;timestamp;P1;durP1;ratioP1;P2;durP2;ratioP2
46925;SDS011;32667;48.248;-1.700;2023-02-08T00:01:22;0.60;;;0.40;;
46925;SDS011;32667;48.248;-1.700;2023-02-08T00:03:56;0.52;;;0.35;;
46925;SDS011;32667;48.248;-1.700;2023-02-08T00:06:22;0.30;;;0.30;;
46925;SDS011;32667;48.248;-1.700;2023-02-08T00:08:50;0.32;;;0.32;;
46925;SDS011;32667;48.248;-1.700;2023-02-08T00:11:16;0.40;;;0.30;;
46925;SDS011;32667;48.248;-1.700;2023-02-08T00:13:46;0.50;;;0.30;;
46925;SDS011;32667;48.248;-1.700;2023-02-08T00:16:12;0.30;;;0.30;;
46925;SDS011;32667;48.248;-1.700;2023-02-08T00:18:39;0.32;;;0.32;;
46925;SDS011;32667;48.248;-1.700;2023-02-08T00:21:12;0.55;;;0.40;;
46925;SDS011;32667;48.248;-1.700;2023-02-08T00:23:42;0.30;;;0.30;;
46925;SDS011;32667;48.248;-1.700;2023-02-08T00:26:13;0.60;;;0.35;;
46925;SDS011;32667;48.248;-1.700;2023-02-08T00:28:42;0.40;;;0.30;;
46925;SDS011;32667;48.248;-1.700;2023-02-08T00:31:08;0.30;;;0.30;;
46925;SDS011;32667;48.248;-1.700;2023-02-08T00:33:36;0.30;;;0.30;;
46925;SDS011;32667;48.248;-1.700;2023-02-08T00:36:17;0.50;;;0.30;;
46925;SDS011;32667;48.248;-1.700;2023-02-08T00:38:45;0.65;;;0.40;;
46925;SDS011;32667;48.248;-1.700;2023-02-08T00:41:18;0.30;;;0.30;;
46925;SDS011;32667;48.248;-1.700;2023-02-08T00:43:47;0.35;;;0.30;;
46925;SDS011;32667;48.248;-1.700;2023-02-08T00:46:13;0.40;;;0.30;;
46925;SDS011;32667;48.248;-1.700;2023-02-08T00:48:39;0.50;;;0.30;;
46925;SDS011;32667;48.248;-1.700;2023-02-08T00:51:13;0.40;;;0.38;;
46925;SDS011;32667;48.248;-1.700;2023-02-08T00:53:42;0.30;;;0.30;;
46925;SDS011;32667;48.248;-1.700;2023-02-08T00:56:12;0.40;;;0.30;;
46925;SDS011;32667;48.248;-1.700;2023-02-08T00:58:42;0.50;;;0.30;;
46925;SDS011;32667;48.248;-1.700;2023-02-08T01:01:08;0.40;;;0.30;;
46925;SDS011;32667;48.248;-1.700;2023-02-08T01:03:34;0.38;;;0.30;;
46925;SDS011;32667;48.248;-1.700;2023-02-08T01:06:05;0.60;;;0.40;;
46925;SDS011;32667;48.248;-1.700;2023-02-08T01:08:33;0.60;;;0.40;;
46925;SDS011;32667;48.248;-1.700;2023-02-08T01:11:09;0.57;;;0.40;;
46925;SDS011;32667;48.248;-1.700;2023-02-08T01:13:44;0.50;;;0.40;;
46925;SDS011;32667;48.248;-1.700;2023-02-08T01:16:12;0.50;;;0.30;;
46925;SDS011;32667;48.248;-1.700;2023-02-08T01:18:45;0.32;;;0.30;;
46925;SDS011;32667;48.248;-1.700;2023-02-08T01:21:14;0.38;;;0.30;;
46925;SDS011;32667;48.248;-1.700;2023-02-08T01:23:42;0.38;;;0.30;;
46925;SDS011;32667;48.248;-1.700;2023-02-08T01:26:09;0.60;;;0.40;;
46925;SDS011;32667;48.248;-1.700;2023-02-08T01:28:39;0.60;;;0.40;;
46925;SDS011;32667;48.248;-1.700;2023-02-08T01:31:09;0.38;;;0.32;;
46925;SDS011;32667;48.248;-1.700;2023-02-08T01:33:37;0.50;;;0.40;;
46925;SDS011;32667;48.248;-1.700;2023-02-08T01:36:05;0.52;;;0.40;;
46925;SDS011;32667;48.248;-1.700;2023-02-08T01:38:34;0.38;;;0.30;;
46925;SDS011;32667;48.248;-1.700;2023-02-08T01:41:01;0.38;;;0.32;;
46925;SDS011;32667;48.248;-1.700;2023-02-08T01:43:59;0.40;;;0.30;;
46925;SDS011;32667;48.248;-1.700;2023-02-08T01:46:32;0.50;;;0.40;;
46925;SDS011;32667;48.248;-1.700;2023-02-08T01:49:09;0.35;;;0.30;;
46925;SDS011;32667;48.248;-1.700;2023-02-08T01:51:46;0.30;;;0.30;;
46925;SDS011;32667;48.248;-1.700;2023-02-08T01:54:24;0.30;;;0.30;;
46925;SDS011;32667;48.248;-1.700;2023-02-08T01:56:52;0.50;;;0.40;;
46925;SDS011;32667;48.248;-1.700;2023-02-08T01:59:20;0.30;;;0.30;;
46925;SDS011;32667;48.248;-1.700;2023-02-08T02:01:51;0.40;;;0.40;;
46925;SDS011;32667;48.248;-1.700;2023-02-08T02:04:31;0.57;;;0.40;;
46925;SDS011;32667;48.248;-1.700;2023-02-08T02:07:03;0.30;;;0.30;;
46925;SDS011;32667;48.248;-1.700;2023-02-08T02:09:35;0.50;;;0.30;;
46925;SDS011;32667;48.248;-1.700;2023-02-08T02:12:17;0.40;;;0.30;;
46925;SDS011;32667;48.248;-1.700;2023-02-08T02:14:50;0.40;;;0.30;;
46925;SDS011;32667;48.248;-1.700;2023-02-08T02:17:18;0.30;;;0.30;;
46925;SDS011;32667;48.248;-1.700;2023-02-08T02:36:48;0.40;;;0.30;;
46925;SDS011;32667;48.248;-1.700;2023-02-08T02:39:50;0.50;;;0.30;;
46925;SDS011;32667;48.248;-1.700;2023-02-08T02:42:41;0.30;;;0.30;;
46925;SDS011;32667;48.248;-1.700;2023-02-08T02:48:52;0.50;;;0.40;;
46925;SDS011;32667;48.248;-1.700;2023-02-08T02:57:18;0.52;;;0.40;;
46925;SDS011;32667;48.248;-1.700;2023-02-08T03:00:05;0.30;;;0.30;;
46925;SDS011;32667;48.248;-1.700;2023-02-08T03:02:35;0.60;;;0.40;;
46925;SDS011;32667;48.248;-1.700;2023-02-08T03:05:01;0.50;;;0.40;;
46925;SDS011;32667;48.248;-1.700;2023-02-08T03:13:28;0.30;;;0.30;;
46925;SDS011;32667;48.248;-1.700;2023-02-08T03:16:25;0.50;;;0.40;;
46925;SDS011;32667;48.248;-1.700;2023-02-08T03:35:59;0.70;;;0.40;;
46925;SDS011;32667;48.248;-1.700;2023-02-08T03:41:18;0.35;;;0.30;;
46925;SDS011;32667;48.248;-1.700;2023-02-08T03:43:56;0.60;;;0.40;;
46925;SDS011;32667;48.248;-1.700;2023-02-08T03:46:45;0.63;;;0.40;;
46925;SDS011;32667;48.248;-1.700;2023-02-08T03:49:27;0.40;;;0.30;;
46925;SDS011;32667;48.248;-1.700;2023-02-08T03:51:57;0.30;;;0.30;;
46925;SDS011;32667;48.248;-1.700;2023-02-08T03:54:32;0.50;;;0.32;;
46925;SDS011;32667;48.248;-1.700;2023-02-08T03:57:05;0.60;;;0.40;;
46925;SDS011;32667;48.248;-1.700;2023-02-08T03:59:50;0.30;;;0.30;;
46925;SDS011;32667;48.248;-1.700;2023-02-08T04:02:25;0.30;;;0.30;;
46925;SDS011;32667;48.248;-1.700;2023-02-08T04:04:53;0.43;;;0.32;;
46925;SDS011;32667;48.248;-1.700;2023-02-08T04:07:33;0.30;;;0.30;;
46925;SDS011;32667;48.248;-1.700;2023-02-08T04:10:09;0.50;;;0.30;;
46925;SDS011;32667;48.248;-1.700;2023-02-08T04:12:35;0.30;;;0.30;;
46925;SDS011;32667;48.248;-1.700;2023-02-08T04:15:03;0.50;;;0.30;;
46925;SDS011;32667;48.248;-1.700;2023-02-08T04:17:33;0.47;;;0.30;;
46925;SDS011;32667;48.248;-1.700;2023-02-08T04:19:59;0.60;;;0.40;;
46925;SDS011;32667;48.248;-1.700;2023-02-08T04:22:24;0.40;;;0.35;;
46925;SDS011;32667;48.248;-1.700;2023-02-08T04:24:53;0.40;;;0.30;;
46925;SDS011;32667;48.248;-1.700;2023-02-08T04:27:19;0.50;;;0.40;;
46925;SDS011;32667;48.248;-1.700;2023-02-08T04:29:47;0.60;;;0.40;;
46925;SDS011;32667;48.248;-1.700;2023-02-08T04:32:13;0.50;;;0.38;;
46925;SDS011;32667;48.248;-1.700;2023-02-08T04:34:39;0.60;;;0.40;;
46925;SDS011;32667;48.248;-1.700;2023-02-08T04:39:37;0.52;;;0.40;;
46925;SDS011;32667;48.248;-1.700;2023-02-08T04:42:08;0.32;;;0.30;;
46925;SDS011;32667;48.248;-1.700;2023-02-08T04:44:33;0.30;;;0.30;;
46925;SDS011;32667;48.248;-1.700;2023-02-08T04:46:59;0.50;;;0.40;;
46925;SDS011;32667;48.248;-1.700;2023-02-08T04:49:25;0.50;;;0.30;;
46925;SDS011;32667;48.248;-1.700;2023-02-08T04:51:51;0.40;;;0.30;;
46925;SDS011;32667;48.248;-1.700;2023-02-08T04:54:24;0.52;;;0.35;;
46925;SDS011;32667;48.248;-1.700;2023-02-08T04:56:55;0.65;;;0.40;;
46925;SDS011;32667;48.248;-1.700;2023-02-08T04:59:20;0.60;;;0.40;;
46925;SDS011;32667;48.248;-1.700;2023-02-08T05:01:46;0.50;;;0.40;;
46925;SDS011;32667;48.248;-1.700;2023-02-08T05:04:14;0.50;;;0.40;;
46925;SDS011;32667;48.248;-1.700;2023-02-08T05:06:53;0.40;;;0.30;;
46925;SDS011;32667;48.248;-1.700;2023-02-08T05:09:19;0.40;;;0.30;;
46925;SDS011;32667;48.248;-1.700;2023-02-08T05:11:45;0.45;;;0.32;;
46925;SDS011;32667;48.248;-1.700;2023-02-08T05:14:11;0.45;;;0.30;;
46925;SDS011;32667;48.248;-1.700;2023-02-08T05:16:36;0.50;;;0.40;;
46925;SDS011;32667;48.248;-1.700;2023-02-08T05:19:04;0.50;;;0.40;;
46925;SDS011;32667;48.248;-1.700;2023-02-08T05:21:40;0.40;;;0.30;;
46925;SDS011;32667;48.248;-1.700;2023-02-08T05:24:15;0.50;;;0.30;;
46925;SDS011;32667;48.248;-1.700;2023-02-08T05:26:41;0.43;;;0.38;;
46925;SDS011;32667;48.248;-1.700;2023-02-08T05:29:07;0.70;;;0.40;;
46925;SDS011;32667;48.248;-1.700;2023-02-08T05:31:33;0.47;;;0.30;;
46925;SDS011;32667;48.248;-1.700;2023-02-08T05:33:58;0.30;;;0.30;;
46925;SDS011;32667;48.248;-1.700;2023-02-08T05:36:24;0.40;;;0.30;;
46925;SDS011;32667;48.248;-1.700;2023-02-08T05:39:00;0.32;;;0.30;;
46925;SDS011;32667;48.248;-1.700;2023-02-08T05:41:28;0.60;;;0.40;;
46925;SDS011;32667;48.248;-1.700;2023-02-08T05:43:54;0.30;;;0.30;;
46925;SDS011;32667;48.248;-1.700;2023-02-08T05:46:25;0.40;;;0.30;;
46925;SDS011;32667;48.248;-1.700;2023-02-08T05:48:53;0.30;;;0.30;;
46925;SDS011;32667;48.248;-1.700;2023-02-08T05:51:28;0.43;;;0.30;;
46925;SDS011;32667;48.248;-1.700;2023-02-08T05:53:57;0.60;;;0.40;;
46925;SDS011;32667;48.248;-1.700;2023-02-08T05:56:30;0.40;;;0.30;;
46925;SDS011;32667;48.248;-1.700;2023-02-08T05:58:55;0.32;;;0.30;;
46925;SDS011;32667;48.248;-1.700;2023-02-08T06:01:24;0.47;;;0.38;;
46925;SDS011;32667;48.248;-1.700;2023-02-08T06:03:50;0.52;;;0.40;;
46925;SDS011;32667;48.248;-1.700;2023-02-08T06:06:22;0.43;;;0.30;;
46925;SDS011;32667;48.248;-1.700;2023-02-08T06:08:55;0.65;;;0.40;;
46925;SDS011;32667;48.248;-1.700;2023-02-08T06:11:28;0.63;;;0.40;;
46925;SDS011;32667;48.248;-1.700;2023-02-08T06:13:57;0.45;;;0.30;;
46925;SDS011;32667;48.248;-1.700;2023-02-08T06:16:22;0.60;;;0.40;;
46925;SDS011;32667;48.248;-1.700;2023-02-08T06:18:48;0.40;;;0.40;;
46925;SDS011;32667;48.248;-1.700;2023-02-08T06:21:18;0.43;;;0.32;;
46925;SDS011;32667;48.248;-1.700;2023-02-08T06:23:44;0.30;;;0.30;;
46925;SDS011;32667;48.248;-1.700;2023-02-08T06:26:10;0.40;;;0.30;;
46925;SDS011;32667;48.248;-1.700;2023-02-08T06:28:36;0.68;;;0.40;;
46925;SDS011;32667;48.248;-1.700;2023-02-08T06:31:04;0.50;;;0.40;;
46925;SDS011;32667;48.248;-1.700;2023-02-08T06:33:30;0.30;;;0.30;;
46925;SDS011;32667;48.248;-1.700;2023-02-08T06:35:55;0.35;;;0.30;;
46925;SDS011;32667;48.248;-1.700;2023-02-08T06:38:31;0.40;;;0.38;;
46925;SDS011;32667;48.248;-1.700;2023-02-08T06:40:59;0.30;;;0.30;;
46925;SDS011;32667;48.248;-1.700;2023-02-08T06:43:25;0.43;;;0.30;;
46925;SDS011;32667;48.248;-1.700;2023-02-08T06:46:13;0.50;;;0.30;;
46925;SDS011;32667;48.248;-1.700;2023-02-08T06:48:46;0.40;;;0.30;;
46925;SDS011;32667;48.248;-1.700;2023-02-08T06:51:11;0.35;;;0.30;;
46925;SDS011;32667;48.248;-1.700;2023-02-08T06:53:39;0.50;;;0.30;;
46925;SDS011;32667;48.248;-1.700;2023-02-08T06:56:13;0.40;;;0.30;;
46925;SDS011;32667;48.248;-1.700;2023-02-08T06:58:38;0.45;;;0.30;;
46925;SDS011;32667;48.248;-1.700;2023-02-08T07:01:14;0.50;;;0.40;;
46925;SDS011;32667;48.248;-1.700;2023-02-08T07:03:45;0.50;;;0.40;;
46925;SDS011;32667;48.248;-1.700;2023-02-08T07:06:15;0.60;;;0.40;;
46925;SDS011;32667;48.248;-1.700;2023-02-08T07:08:43;0.40;;;0.30;;
46925;SDS011;32667;48.248;-1.700;2023-02-08T07:11:12;0.40;;;0.30;;
46925;SDS011;32667;48.248;-1.700;2023-02-08T07:13:44;0.50;;;0.40;;
46925;SDS011;32667;48.248;-1.700;2023-02-08T07:16:14;0.50;;;0.30;;
46925;SDS011;32667;48.248;-1.700;2023-02-08T07:18:43;0.43;;;0.30;;
46925;SDS011;32667;48.248;-1.700;2023-02-08T07:21:10;0.30;;;0.30;;
46925;SDS011;32667;48.248;-1.700;2023-02-08T07:23:38;0.60;;;0.40;;
46925;SDS011;32667;48.248;-1.700;2023-02-08T07:26:08;0.40;;;0.35;;
46925;SDS011;32667;48.248;-1.700;2023-02-08T07:28:36;0.38;;;0.30;;
46925;SDS011;32667;48.248;-1.700;2023-02-08T07:31:07;0.60;;;0.35;;
46925;SDS011;32667;48.248;-1.700;2023-02-08T07:33:36;0.30;;;0.30;;
46925;SDS011;32667;48.248;-1.700;2023-02-08T07:36:10;0.45;;;0.30;;
46925;SDS011;32667;48.248;-1.700;2023-02-08T07:38:38;0.65;;;0.38;;
46925;SDS011;32667;48.248;-1.700;2023-02-08T07:41:07;0.30;;;0.30;;
46925;SDS011;32667;48.248;-1.700;2023-02-08T07:43:44;0.40;;;0.30;;
46925;SDS011;32667;48.248;-1.700;2023-02-08T07:46:17;0.60;;;0.40;;
46925;SDS011;32667;48.248;-1.700;2023-02-08T07:48:46;0.30;;;0.30;;
46925;SDS011;32667;48.248;-1.700;2023-02-08T07:51:34;0.30;;;0.30;;
46925;SDS011;32667;48.248;-1.700;2023-02-08T07:54:00;0.38;;;0.32;;
46925;SDS011;32667;48.248;-1.700;2023-02-08T07:56:49;0.50;;;0.40;;
46925;SDS011;32667;48.248;-1.700;2023-02-08T07:59:14;0.50;;;0.30;;
46925;SDS011;32667;48.248;-1.700;2023-02-08T08:01:40;0.50;;;0.40;;
46925;SDS011;32667;48.248;-1.700;2023-02-08T08:04:06;0.40;;;0.35;;
46925;SDS011;32667;48.248;-1.700;2023-02-08T08:06:35;0.30;;;0.30;;
46925;SDS011;32667;48.248;-1.700;2023-02-08T08:09:01;0.38;;;0.30;;
46925;SDS011;32667;48.248;-1.700;2023-02-08T08:11:35;0.43;;;0.30;;
46925;SDS011;32667;48.248;-1.700;2023-02-08T08:14:09;0.30;;;0.30;;
46925;SDS011;32667;48.248;-1.700;2023-02-08T08:16:39;0.50;;;0.30;;
46925;SDS011;32667;48.248;-1.700;2023-02-08T08:19:17;0.45;;;0.32;;
46925;SDS011;32667;48.248;-1.700;2023-02-08T08:22:03;0.60;;;0.40;;
46925;SDS011;32667;48.248;-1.700;2023-02-08T08:24:31;0.60;;;0.40;;
46925;SDS011;32667;48.248;-1.700;2023-02-08T08:27:03;0.47;;;0.30;;
46925;SDS011;32667;48.248;-1.700;2023-02-08T08:29:32;0.30;;;0.30;;
46925;SDS011;32667;48.248;-1.700;2023-02-08T08:32:07;0.50;;;0.40;;
46925;SDS011;32667;48.248;-1.700;2023-02-08T08:34:33;0.50;;;0.30;;
46925;SDS011;32667;48.248;-1.700;2023-02-08T08:36:59;0.30;;;0.30;;
46925;SDS011;32667;48.248;-1.700;2023-02-08T08:39:35;0.60;;;0.40;;
46925;SDS011;32667;48.248;-1.700;2023-02-08T08:42:11;0.63;;;0.40;;
46925;SDS011;32667;48.248;-1.700;2023-02-08T08:44:39;0.57;;;0.40;;
46925;SDS011;32667;48.248;-1.700;2023-02-08T08:47:07;0.63;;;0.40;;
46925;SDS011;32667;48.248;-1.700;2023-02-08T08:49:33;0.60;;;0.40;;
46925;SDS011;32667;48.248;-1.700;2023-02-08T08:52:04;0.50;;;0.30;;
46925;SDS011;32667;48.248;-1.700;2023-02-08T08:54:49;0.70;;;0.40;;
46925;SDS011;32667;48.248;-1.700;2023-02-08T08:57:15;0.55;;;0.40;;
46925;SDS011;32667;48.248;-1.700;2023-02-08T08:59:41;0.52;;;0.35;;
46925;SDS011;32667;48.248;-1.700;2023-02-08T09:02:10;0.32;;;0.30;;
46925;SDS011;32667;48.248;-1.700;2023-02-08T09:04:37;0.50;;;0.40;;
46925;SDS011;32667;48.248;-1.700;2023-02-08T09:07:05;0.30;;;0.30;;
46925;SDS011;32667;48.248;-1.700;2023-02-08T09:09:32;0.40;;;0.30;;
46925;SDS011;32667;48.248;-1.700;2023-02-08T09:12:01;0.60;;;0.38;;
46925;SDS011;32667;48.248;-1.700;2023-02-08T09:14:27;0.45;;;0.38;;
46925;SDS011;32667;48.248;-1.700;2023-02-08T09:16:53;0.52;;;0.40;;
46925;SDS011;32667;48.248;-1.700;2023-02-08T09:19:21;0.40;;;0.30;;
46925;SDS011;32667;48.248;-1.700;2023-02-08T09:21:47;0.40;;;0.30;;
46925;SDS011;32667;48.248;-1.700;2023-02-08T09:24:15;0.40;;;0.30;;
46925;SDS011;32667;48.248;-1.700;2023-02-08T09:26:41;0.50;;;0.30;;
46925;SDS011;32667;48.248;-1.700;2023-02-08T09:29:09;0.40;;;0.30;;
46925;SDS011;32667;48.248;-1.700;2023-02-08T09:31:35;0.30;;;0.30;;
46925;SDS011;32667;48.248;-1.700;2023-02-08T09:34:02;0.40;;;0.30;;
46925;SDS011;32667;48.248;-1.700;2023-02-08T09:36:30;0.30;;;0.30;;
46925;SDS011;32667;48.248;-1.700;2023-02-08T09:38:59;0.30;;;0.30;;
46925;SDS011;32667;48.248;-1.700;2023-02-08T09:47:21;0.30;;;0.30;;
46925;SDS011;32667;48.248;-1.700;2023-02-08T09:52:36;0.40;;;0.30;;
46925;SDS011;32667;48.248;-1.700;2023-02-08T09:58:19;0.32;;;0.30;;
46925;SDS011;32667;48.248;-1.700;2023-02-08T10:00:50;0.50;;;0.30;;
46925;SDS011;32667;48.248;-1.700;2023-02-08T10:03:20;0.30;;;0.30;;
46925;SDS011;32667;48.248;-1.700;2023-02-08T10:05:51;0.45;;;0.38;;
46925;SDS011;32667;48.248;-1.700;2023-02-08T10:08:17;0.30;;;0.30;;
46925;SDS011;32667;48.248;-1.700;2023-02-08T10:10:53;0.35;;;0.30;;
46925;SDS011;32667;48.248;-1.700;2023-02-08T10:33:21;0.30;;;0.30;;
46925;SDS011;32667;48.248;-1.700;2023-02-08T10:35:56;0.30;;;0.30;;
46925;SDS011;32667;48.248;-1.700;2023-02-08T10:38:26;0.40;;;0.30;;
46925;SDS011;32667;48.248;-1.700;2023-02-08T10:40:57;0.50;;;0.30;;
46925;SDS011;32667;48.248;-1.700;2023-02-08T10:51:16;0.30;;;0.30;;
46925;SDS011;32667;48.248;-1.700;2023-02-08T10:53:44;0.30;;;0.30;;
46925;SDS011;32667;48.248;-1.700;2023-02-08T10:56:16;0.30;;;0.30;;
46925;SDS011;32667;48.248;-1.700;2023-02-08T10:58:56;0.25;;;0.25;;
46925;SDS011;32667;48.248;-1.700;2023-02-08T11:01:31;0.20;;;0.20;;
46925;SDS011;32667;48.248;-1.700;2023-02-08T11:04:10;0.30;;;0.30;;
46925;SDS011;32667;48.248;-1.700;2023-02-08T11:06:37;0.28;;;0.28;;
46925;SDS011;32667;48.248;-1.700;2023-02-08T11:09:04;0.30;;;0.30;;
46925;SDS011;32667;48.248;-1.700;2023-02-08T11:11:51;0.30;;;0.30;;
46925;SDS011;32667;48.248;-1.700;2023-02-08T11:14:38;0.20;;;0.20;;
46925;SDS011;32667;48.248;-1.700;2023-02-08T11:17:19;0.20;;;0.20;;
46925;SDS011;32667;48.248;-1.700;2023-02-08T11:19:51;0.30;;;0.30;;
46925;SDS011;32667;48.248;-1.700;2023-02-08T11:22:18;0.30;;;0.30;;
46925;SDS011;32667;48.248;-1.700;2023-02-08T11:24:55;0.30;;;0.30;;
46925;SDS011;32667;48.248;-1.700;2023-02-08T11:27:36;0.22;;;0.22;;
46925;SDS011;32667;48.248;-1.700;2023-02-08T11:32:37;0.30;;;0.30;;
46925;SDS011;32667;48.248;-1.700;2023-02-08T11:35:11;0.40;;;0.30;;
46925;SDS011;32667;48.248;-1.700;2023-02-08T11:37:37;0.30;;;0.30;;
46925;SDS011;32667;48.248;-1.700;2023-02-08T11:40:14;0.20;;;0.20;;
46925;SDS011;32667;48.248;-1.700;2023-02-08T11:42:45;0.20;;;0.20;;
46925;SDS011;32667;48.248;-1.700;2023-02-08T11:45:27;0.25;;;0.25;;
46925;SDS011;32667;48.248;-1.700;2023-02-08T11:47:56;0.30;;;0.30;;
46925;SDS011;32667;48.248;-1.700;2023-02-08T11:50:24;0.25;;;0.25;;
46925;SDS011;32667;48.248;-1.700;2023-02-08T11:52:57;0.30;;;0.30;;
46925;SDS011;32667;48.248;-1.700;2023-02-08T11:55:33;0.20;;;0.20;;
46925;SDS011;32667;48.248;-1.700;2023-02-08T11:58:02;0.30;;;0.30;;
46925;SDS011;32667;48.248;-1.700;2023-02-08T12:00:38;0.20;;;0.20;;
46925;SDS011;32667;48.248;-1.700;2023-02-08T12:11:12;0.20;;;0.20;;
46925;SDS011;32667;48.248;-1.700;2023-02-08T12:13:51;0.30;;;0.30;;
46925;SDS011;32667;48.248;-1.700;2023-02-08T12:16:50;0.20;;;0.20;;
46925;SDS011;32667;48.248;-1.700;2023-02-08T12:22:27;0.20;;;0.20;;
46925;SDS011;32667;48.248;-1.700;2023-02-08T12:27:42;0.30;;;0.30;;
46925;SDS011;32667;48.248;-1.700;2023-02-08T12:41:30;0.20;;;0.20;;
46925;SDS011;32667;48.248;-1.700;2023-02-08T12:52:44;0.20;;;0.20;;
46925;SDS011;32667;48.248;-1.700;2023-02-08T12:57:59;0.22;;;0.22;;
46925;SDS011;32667;48.248;-1.700;2023-02-08T13:00:35;0.20;;;0.20;;
46925;SDS011;32667;48.248;-1.700;2023-02-08T13:05:37;0.22;;;0.22;;
46925;SDS011;32667;48.248;-1.700;2023-02-08T13:08:08;0.20;;;0.20;;
46925;SDS011;32667;48.248;-1.700;2023-02-08T13:10:57;0.30;;;0.30;;
46925;SDS011;32667;48.248;-1.700;2023-02-08T13:13:28;0.20;;;0.20;;
46925;SDS011;32667;48.248;-1.700;2023-02-08T13:16:06;0.20;;;0.20;;
46925;SDS011;32667;48.248;-1.700;2023-02-08T13:18:46;0.20;;;0.20;;
46925;SDS011;32667;48.248;-1.700;2023-02-08T13:21:23;0.20;;;0.20;;
46925;SDS011;32667;48.248;-1.700;2023-02-08T13:23:55;0.30;;;0.30;;
46925;SDS011;32667;48.248;-1.700;2023-02-08T13:26:23;0.20;;;0.20;;
46925;SDS011;32667;48.248;-1.700;2023-02-08T13:28:55;0.20;;;0.20;;
46925;SDS011;32667;48.248;-1.700;2023-02-08T13:31:39;0.20;;;0.20;;
46925;SDS011;32667;48.248;-1.700;2023-02-08T13:34:11;0.20;;;0.20;;
46925;SDS011;32667;48.248;-1.700;2023-02-08T13:36:51;0.25;;;0.25;;
46925;SDS011;32667;48.248;-1.700;2023-02-08T13:42:01;0.20;;;0.20;;
46925;SDS011;32667;48.248;-1.700;2023-02-08T13:44:38;0.20;;;0.20;;
46925;SDS011;32667;48.248;-1.700;2023-02-08T13:47:05;0.30;;;0.30;;
46925;SDS011;32667;48.248;-1.700;2023-02-08T13:58:07;0.20;;;0.20;;
46925;SDS011;32667;48.248;-1.700;2023-02-08T14:01:20;0.20;;;0.20;;
46925;SDS011;32667;48.248;-1.700;2023-02-08T14:06:46;0.20;;;0.20;;
46925;SDS011;32667;48.248;-1.700;2023-02-08T14:11:59;0.20;;;0.20;;
46925;SDS011;32667;48.248;-1.700;2023-02-08T14:14:31;0.20;;;0.20;;
46925;SDS011;32667;48.248;-1.700;2023-02-08T14:17:21;0.30;;;0.30;;
46925;SDS011;32667;48.248;-1.700;2023-02-08T14:19:58;0.15;;;0.15;;
46925;SDS011;32667;48.248;-1.700;2023-02-08T14:22:30;0.13;;;0.13;;
46925;SDS011;32667;48.248;-1.700;2023-02-08T14:25:14;0.20;;;0.20;;
46925;SDS011;32667;48.248;-1.700;2023-02-08T14:30:35;0.20;;;0.20;;
46925;SDS011;32667;48.248;-1.700;2023-02-08T14:33:09;0.30;;;0.30;;
46925;SDS011;32667;48.248;-1.700;2023-02-08T14:35:50;0.10;;;0.10;;
46925;SDS011;32667;48.248;-1.700;2023-02-08T14:40:50;0.20;;;0.20;;
46925;SDS011;32667;48.248;-1.700;2023-02-08T14:45:52;0.20;;;0.20;;
46925;SDS011;32667;48.248;-1.700;2023-02-08T14:51:17;0.20;;;0.20;;
46925;SDS011;32667;48.248;-1.700;2023-02-08T14:54:05;0.20;;;0.20;;
46925;SDS011;32667;48.248;-1.700;2023-02-08T14:56:47;0.20;;;0.20;;
46925;SDS011;32667;48.248;-1.700;2023-02-08T14:59:36;0.20;;;0.20;;
46925;SDS011;32667;48.248;-1.700;2023-02-08T15:02:11;0.20;;;0.20;;
46925;SDS011;32667;48.248;-1.700;2023-02-08T15:04:44;0.20;;;0.20;;
46925;SDS011;32667;48.248;-1.700;2023-02-08T15:07:30;0.20;;;0.20;;
46925;SDS011;32667;48.248;-1.700;2023-02-08T15:10:09;0.20;;;0.20;;
46925;SDS011;32667;48.248;-1.700;2023-02-08T15:12:37;0.20;;;0.20;;
46925;SDS011;32667;48.248;-1.700;2023-02-08T15:15:06;0.10;;;0.10;;
46925;SDS011;32667;48.248;-1.700;2023-02-08T15:17:54;0.20;;;0.20;;
46925;SDS011;32667;48.248;-1.700;2023-02-08T15:20:30;0.20;;;0.20;;
46925;SDS011;32667;48.248;-1.700;2023-02-08T15:22:59;0.20;;;0.20;;
46925;SDS011;32667;48.248;-1.700;2023-02-08T15:25:52;0.15;;;0.15;;
46925;SDS011;32667;48.248;-1.700;2023-02-08T15:28:43;0.20;;;0.20;;
46925;SDS011;32667;48.248;-1.700;2023-02-08T15:31:12;0.20;;;0.20;;
46925;SDS011;32667;48.248;-1.700;2023-02-08T15:33:42;0.20;;;0.20;;
46925;SDS011;32667;48.248;-1.700;2023-02-08T15:42:02;0.20;;;0.20;;
46925;SDS011;32667;48.248;-1.700;2023-02-08T15:44:29;0.20;;;0.20;;
46925;SDS011;32667;48.248;-1.700;2023-02-08T15:47:03;0.20;;;0.20;;
46925;SDS011;32667;48.248;-1.700;2023-02-08T15:49:37;0.20;;;0.20;;
46925;SDS011;32667;48.248;-1.700;2023-02-08T15:52:12;0.20;;;0.20;;
46925;SDS011;32667;48.248;-1.700;2023-02-08T15:54:44;0.20;;;0.20;;
46925;SDS011;32667;48.248;-1.700;2023-02-08T15:59:42;0.20;;;0.20;;
46925;SDS011;32667;48.248;-1.700;2023-02-08T16:02:32;0.20;;;0.20;;
46925;SDS011;32667;48.248;-1.700;2023-02-08T16:05:16;0.20;;;0.20;;
46925;SDS011;32667;48.248;-1.700;2023-02-08T16:10:45;0.20;;;0.20;;
46925;SDS011;32667;48.248;-1.700;2023-02-08T16:19:03;0.20;;;0.20;;
46925;SDS011;32667;48.248;-1.700;2023-02-08T16:21:46;0.20;;;0.20;;
46925;SDS011;32667;48.248;-1.700;2023-02-08T16:29:17;0.20;;;0.20;;
46925;SDS011;32667;48.248;-1.700;2023-02-08T16:31:55;0.20;;;0.20;;
46925;SDS011;32667;48.248;-1.700;2023-02-08T16:34:28;0.20;;;0.20;;
46925;SDS011;32667;48.248;-1.700;2023-02-08T16:36:58;0.20;;;0.20;;
46925;SDS011;32667;48.248;-1.700;2023-02-08T16:39:35;0.20;;;0.20;;
46925;SDS011;32667;48.248;-1.700;2023-02-08T16:42:06;0.20;;;0.20;;
46925;SDS011;32667;48.248;-1.700;2023-02-08T16:47:41;0.20;;;0.20;;
46925;SDS011;32667;48.248;-1.700;2023-02-08T16:50:19;0.20;;;0.20;;
46925;SDS011;32667;48.248;-1.700;2023-02-08T16:52:52;0.20;;;0.20;;
46925;SDS011;32667;48.248;-1.700;2023-02-08T16:55:40;0.20;;;0.20;;
46925;SDS011;32667;48.248;-1.700;2023-02-08T16:58:11;0.20;;;0.20;;
46925;SDS011;32667;48.248;-1.700;2023-02-08T17:00:41;0.20;;;0.20;;
46925;SDS011;32667;48.248;-1.700;2023-02-08T17:03:09;0.20;;;0.20;;
46925;SDS011;32667;48.248;-1.700;2023-02-08T17:05:36;0.20;;;0.20;;
46925;SDS011;32667;48.248;-1.700;2023-02-08T17:08:04;0.20;;;0.20;;
46925;SDS011;32667;48.248;-1.700;2023-02-08T17:10:34;0.20;;;0.20;;
46925;SDS011;32667;48.248;-1.700;2023-02-08T17:13:02;0.20;;;0.20;;
46925;SDS011;32667;48.248;-1.700;2023-02-08T17:15:31;0.20;;;0.20;;
46925;SDS011;32667;48.248;-1.700;2023-02-08T17:17:57;0.20;;;0.20;;
46925;SDS011;32667;48.248;-1.700;2023-02-08T17:20:30;0.20;;;0.20;;
46925;SDS011;32667;48.248;-1.700;2023-02-08T17:22:57;0.20;;;0.20;;
46925;SDS011;32667;48.248;-1.700;2023-02-08T17:25:26;0.30;;;0.30;;
46925;SDS011;32667;48.248;-1.700;2023-02-08T17:27:54;0.20;;;0.20;;
46925;SDS011;32667;48.248;-1.700;2023-02-08T17:32:56;0.20;;;0.20;;
46925;SDS011;32667;48.248;-1.700;2023-02-08T17:35:24;0.20;;;0.20;;
46925;SDS011;32667;48.248;-1.700;2023-02-08T17:38:09;0.30;;;0.30;;
46925;SDS011;32667;48.248;-1.700;2023-02-08T17:40:36;0.20;;;0.20;;
46925;SDS011;32667;48.248;-1.700;2023-02-08T17:43:02;0.20;;;0.20;;
46925;SDS011;32667;48.248;-1.700;2023-02-08T17:45:31;0.20;;;0.20;;
46925;SDS011;32667;48.248;-1.700;2023-02-08T17:48:00;0.22;;;0.22;;
46925;SDS011;32667;48.248;-1.700;2023-02-08T17:50:34;0.28;;;0.28;;
46925;SDS011;32667;48.248;-1.700;2023-02-08T17:53:00;0.20;;;0.20;;
46925;SDS011;32667;48.248;-1.700;2023-02-08T17:55:27;0.20;;;0.20;;
46925;SDS011;32667;48.248;-1.700;2023-02-08T17:57:53;0.20;;;0.20;;
46925;SDS011;32667;48.248;-1.700;2023-02-08T18:00:20;0.30;;;0.30;;
46925;SDS011;32667;48.248;-1.700;2023-02-08T18:03:07;0.20;;;0.20;;
46925;SDS011;32667;48.248;-1.700;2023-02-08T18:07:58;0.20;;;0.20;;
46925;SDS011;32667;48.248;-1.700;2023-02-08T18:10:24;0.20;;;0.20;;
46925;SDS011;32667;48.248;-1.700;2023-02-08T18:12:50;0.20;;;0.20;;
46925;SDS011;32667;48.248;-1.700;2023-02-08T18:15:17;0.20;;;0.20;;